Time;durP1;ratioP1;P1;durP2;ratioP2;P2;SDS_P1;SDS_P2;PMS_P1;PMS_P2;Temp;Humidity;BMP_temperature;BMP_pressure;BME280_temperature;BME280_humidity;BME280_pressure;Samples;Min_cycle;Max_cycle;Signal;HPM_P1;HPM_P2
2022/02/25 00:02:26;;;;;;;10.00;8.90;;;;;;;1.20;100.00;99767.45;1833524;77;21007;-69
2022/02/25 00:04:54;;;;;;;11.28;8.55;;;;;;;1.16;100.00;99771.49;1828340;76;20977;-68
2022/02/25 00:07:23;;;;;;;11.30;9.25;;;;;;;1.12;100.00;99757.81;1839196;76;20951;-68
2022/02/25 00:09:51;;;;;;;17.17;10.43;;;;;;;1.11;100.00;99772.05;1830099;76;20879;-69
2022/02/25 00:12:19;;;;;;;16.52;10.65;;;;;;;1.11;100.00;99775.20;1827024;77;20927;-68
2022/02/25 00:14:49;;;;;;;15.83;10.48;;;;;;;1.10;100.00;99765.61;1822334;76;20907;-69
2022/02/25 00:17:17;;;;;;;13.45;11.10;;;;;;;1.09;100.00;99767.45;1842640;77;20836;-68
2022/02/25 00:19:43;;;;;;;16.47;12.90;;;;;;;1.06;100.00;99772.60;1842510;76;21001;-69
2022/02/25 00:22:12;;;;;;;19.30;11.55;;;;;;;1.01;100.00;99762.28;1844665;76;22068;-69
2022/02/25 00:24:40;;;;;;;11.93;10.45;;;;;;;0.92;100.00;99754.95;1775946;79;20952;-68
2022/02/25 00:27:08;;;;;;;12.50;10.13;;;;;;;0.88;100.00;99756.32;1801734;77;20903;-68
2022/02/25 00:29:37;;;;;;;16.17;10.40;;;;;;;0.78;100.00;99751.33;1831979;77;21500;-69
2022/02/25 00:32:07;;;;;;;14.78;11.22;;;;;;;0.72;100.00;99748.12;1812863;76;21001;-69
2022/02/25 00:34:36;;;;;;;14.90;9.98;;;;;;;0.64;100.00;99743.77;1834252;76;20950;-69
2022/02/25 00:37:04;;;;;;;14.85;10.53;;;;;;;0.58;100.00;99735.74;1830320;77;23735;-68
2022/02/25 00:39:33;;;;;;;16.77;11.68;;;;;;;0.46;100.00;99748.59;1793901;77;20928;-68
2022/02/25 00:42:05;;;;;;;19.48;11.83;;;;;;;0.37;100.00;99745.24;1803375;77;26612;-69
2022/02/25 00:44:31;;;;;;;16.65;12.00;;;;;;;0.34;100.00;99742.13;1817775;76;21748;-67
2022/02/25 00:47:00;;;;;;;17.07;11.88;;;;;;;0.28;100.00;99736.27;1791992;78;20991;-68
2022/02/25 00:49:28;;;;;;;19.95;12.58;;;;;;;0.23;100.00;99730.22;1828486;76;21044;-68
2022/02/25 00:51:57;;;;;;;15.05;11.33;;;;;;;0.18;100.00;99728.12;1824311;77;21360;-68
2022/02/25 00:54:28;;;;;;;15.65;11.00;;;;;;;0.12;100.00;99724.91;1844239;77;20988;-67
2022/02/25 00:56:55;;;;;;;16.52;11.53;;;;;;;0.06;100.00;99722.98;1828331;77;21042;-68
2022/02/25 00:59:24;;;;;;;14.07;10.75;;;;;;;0.03;100.00;99711.97;1839354;76;20945;-68
2022/02/25 01:01:51;;;;;;;16.80;10.05;;;;;;;-0.07;100.00;99719.65;1820572;77;21187;-67
2022/02/25 01:04:19;;;;;;;13.00;9.68;;;;;;;-0.12;100.00;99718.53;1834286;76;20994;-68
2022/02/25 01:06:46;;;;;;;17.00;11.57;;;;;;;-0.21;100.00;99707.25;1826034;76;21014;-68
2022/02/25 01:09:13;;;;;;;13.43;11.00;;;;;;;-0.27;100.00;99706.16;1829521;76;20922;-67
2022/02/25 01:11:40;;;;;;;23.42;12.60;;;;;;;-0.33;100.00;99706.05;1832521;76;21379;-67
2022/02/25 01:14:06;;;;;;;21.50;12.70;;;;;;;-0.38;100.00;99701.31;1811676;76;21101;-67
2022/02/25 01:16:33;;;;;;;23.50;12.75;;;;;;;-0.37;100.00;99695.53;1816676;78;21037;-66
2022/02/25 01:19:00;;;;;;;18.32;12.98;;;;;;;-0.39;100.00;99690.93;1810715;78;21046;-67
2022/02/25 01:21:26;;;;;;;20.77;12.10;;;;;;;-0.40;100.00;99684.03;1808654;78;21035;-65
2022/02/25 01:23:53;;;;;;;16.35;12.20;;;;;;;-0.44;100.00;99687.54;1809356;77;21037;-67
2022/02/25 01:26:19;;;;;;;20.85;13.70;;;;;;;-0.50;100.00;99684.28;1812061;78;21144;-67
2022/02/25 01:28:46;;;;;;;18.60;11.18;;;;;;;-0.60;100.00;99672.66;1809241;78;20875;-67
2022/02/25 01:31:13;;;;;;;17.95;13.10;;;;;;;-0.66;100.00;99682.11;1812353;77;20938;-67
2022/02/25 01:33:41;;;;;;;16.70;12.30;;;;;;;-0.70;100.00;99674.73;1824165;78;21121;-66
2022/02/25 01:36:08;;;;;;;19.48;12.13;;;;;;;-0.76;100.00;99678.06;1821467;77;20970;-67
2022/02/25 01:38:35;;;;;;;19.20;14.07;;;;;;;-0.80;100.00;99673.66;1817943;78;21330;-67
2022/02/25 01:41:02;;;;;;;20.55;12.55;;;;;;;-0.84;100.00;99672.87;1809997;77;20912;-67
2022/02/25 01:43:29;;;;;;;20.48;14.83;;;;;;;-0.84;100.00;99669.73;1825279;78;20937;-68
2022/02/25 01:45:55;;;;;;;18.27;12.65;;;;;;;-0.87;100.00;99664.82;1827615;77;20915;-68
2022/02/25 01:48:26;;;;;;;23.07;12.60;;;;;;;-0.98;100.00;99673.97;1826238;78;20980;-67
2022/02/25 01:50:54;;;;;;;19.40;13.15;;;;;;;-1.07;100.00;99672.88;1826047;77;21852;-68
2022/02/25 01:53:21;;;;;;;19.30;14.10;;;;;;;-1.17;100.00;99668.66;1824533;77;21019;-67
2022/02/25 01:55:47;;;;;;;21.23;14.05;;;;;;;-1.26;100.00;99663.11;1776765;79;20883;-67
2022/02/25 01:58:15;;;;;;;18.98;12.78;;;;;;;-1.31;100.00;99656.23;1767768;81;20917;-68
2022/02/25 02:00:43;;;;;;;21.20;13.50;;;;;;;-1.31;100.00;99655.73;1741756;81;21050;-67
2022/02/25 02:03:09;;;;;;;19.92;13.45;;;;;;;-1.26;100.00;99660.48;1810228;78;21161;-67
2022/02/25 02:05:38;;;;;;;19.40;14.65;;;;;;;-1.30;100.00;99660.02;1825357;78;20905;-66
2022/02/25 02:08:06;;;;;;;18.20;13.22;;;;;;;-1.31;100.00;99661.00;1826247;78;20964;-67
2022/02/25 02:10:35;;;;;;;18.32;14.20;;;;;;;-1.37;100.00;99657.76;1825225;77;20955;-67
2022/02/25 02:13:04;;;;;;;20.08;13.10;;;;;;;-1.41;100.00;99656.45;1833545;77;20987;-67
2022/02/25 02:15:32;;;;;;;20.35;13.50;;;;;;;-1.39;100.00;99654.47;1845007;77;21556;-68
2022/02/25 02:17:59;;;;;;;;;;;;;;;-1.39;100.00;99650.52;1842772;76;20890;-68
2022/02/25 02:20:26;;;;;;;17.27;12.63;;;;;;;-1.41;100.00;99653.01;1844861;76;20656;-68
2022/02/25 02:22:54;;;;;;;22.50;13.88;;;;;;;-1.41;100.00;99654.33;1836849;77;20934;-67
2022/02/25 02:25:22;;;;;;;17.85;12.88;;;;;;;-1.47;100.00;99655.00;1844901;76;21548;-68
2022/02/25 02:30:35;;;;;;;27.82;16.60;;;;;;;-1.52;100.00;99646.30;1844435;76;20934;-69
2022/02/25 02:33:03;;;;;;;36.65;21.80;;;;;;;-1.56;100.00;99643.72;1814878;76;20950;-68
2022/02/25 02:35:30;;;;;;;36.45;21.27;;;;;;;-1.59;100.00;99647.52;1844606;77;20942;-69
2022/02/25 02:37:57;;;;;;;28.50;18.25;;;;;;;-1.61;100.00;99640.28;1820640;77;20940;-68
2022/02/25 02:40:23;;;;;;;29.52;17.73;;;;;;;-1.64;100.00;99640.63;1840769;76;21161;-68
2022/02/25 02:42:50;;;;;;;32.83;19.45;;;;;;;-1.70;100.00;99645.76;1844445;77;20908;-68
2022/02/25 02:45:17;;;;;;;27.95;17.98;;;;;;;-1.77;100.00;99641.17;1846927;77;20898;-68
2022/02/25 02:47:43;;;;;;;33.60;20.30;;;;;;;-1.85;100.00;99645.66;1844950;76;20946;-69
2022/02/25 02:50:10;;;;;;;34.80;19.75;;;;;;;-1.90;100.00;99638.78;1842747;77;20985;-69
2022/02/25 02:52:37;;;;;;;29.52;18.15;;;;;;;-1.98;100.00;99632.56;1844687;77;21146;-70
2022/02/25 02:55:06;;;;;;;23.32;15.28;;;;;;;-2.04;100.00;99636.36;1823930;77;20970;-69
2022/02/25 02:57:33;;;;;;;23.92;14.05;;;;;;;-2.12;100.00;99631.13;1832746;77;21037;-70
2022/02/25 02:59:59;;;;;;;21.07;14.13;;;;;;;-2.20;100.00;99628.04;1822128;76;21065;-69
2022/02/25 03:02:26;;;;;;;18.65;14.90;;;;;;;-2.23;100.00;99629.67;1832187;77;20836;-70
2022/02/25 03:04:54;;;;;;;23.30;14.70;;;;;;;-2.25;100.00;99618.52;1818643;79;21978;-69
2022/02/25 03:07:20;;;;;;;18.52;13.65;;;;;;;-2.28;100.00;99621.47;1835605;77;20942;-70
2022/02/25 03:09:47;;;;;;;18.27;14.35;;;;;;;-2.33;100.00;99623.78;1825602;76;20951;-69
2022/02/25 03:12:13;;;;;;;17.25;13.78;;;;;;;-2.40;100.00;99624.48;1834056;77;20907;-68
2022/02/25 03:14:41;;;;;;;23.60;15.48;;;;;;;-2.47;100.00;99619.56;1820406;76;20915;-69
2022/02/25 03:17:11;;;;;;;21.73;15.05;;;;;;;-2.49;100.00;99622.03;1830906;76;21190;-69
2022/02/25 03:19:37;;;;;;;;;;;;;;;-2.54;100.00;99619.09;1847192;76;20824;-69
2022/02/25 03:22:04;;;;;;;22.80;15.03;;;;;;;-2.62;100.00;99619.43;1831178;76;20116;-69
2022/02/25 03:24:33;;;;;;;22.67;16.60;;;;;;;-2.78;100.00;99611.56;1815930;77;20954;-69
2022/02/25 03:26:59;;;;;;;21.23;16.70;;;;;;;-2.85;100.00;99607.45;1820545;77;20914;-69
2022/02/25 03:29:26;;;;;;;23.10;16.65;;;;;;;-2.84;100.00;99606.98;1834710;76;21126;-69
2022/02/25 03:31:53;;;;;;;26.73;15.20;;;;;;;-2.84;100.00;99597.78;1809057;77;20879;-70
2022/02/25 03:34:20;;;;;;;31.23;18.62;;;;;;;-2.83;100.00;99587.59;1820239;77;21251;-69
2022/02/25 03:36:47;;;;;;;43.95;21.70;;;;;;;-2.82;100.00;99591.38;1820319;76;20926;-69
2022/02/25 03:39:14;;;;;;;25.95;18.15;;;;;;;-2.75;100.00;99586.76;1820172;77;20923;-69
2022/02/25 03:41:40;;;;;;;30.12;18.45;;;;;;;-2.76;100.00;99586.45;1818484;79;21131;-69
2022/02/25 03:44:07;;;;;;;28.45;19.50;;;;;;;-2.77;100.00;99582.97;1820369;77;20875;-69
2022/02/25 03:46:34;;;;;;;24.02;16.82;;;;;;;-2.83;100.00;99587.59;1845562;76;20869;-68
2022/02/25 03:49:01;;;;;;;25.55;17.92;;;;;;;-2.85;100.00;99586.44;1841821;77;21070;-69
2022/02/25 03:51:29;;;;;;;42.95;24.27;;;;;;;-2.93;100.00;99586.45;1843597;77;20844;-70
2022/02/25 03:53:56;;;;;;;52.05;27.05;;;;;;;-3.02;100.00;99588.25;1838368;77;25671;-69
2022/02/25 03:56:22;;;;;;;46.88;24.72;;;;;;;-2.97;100.00;99572.50;1827895;77;20954;-70
2022/02/25 03:58:49;;;;;;;67.85;30.45;;;;;;;-2.91;100.00;99580.55;1826782;77;20875;-71
2022/02/25 04:01:16;;;;;;;35.10;20.37;;;;;;;-2.92;100.00;99579.39;1837885;77;21046;-69
2022/02/25 04:03:42;;;;;;;40.85;21.35;;;;;;;-2.95;100.00;99574.48;1835402;77;21005;-70
2022/02/25 04:06:09;;;;;;;30.05;19.90;;;;;;;-2.93;100.00;99577.77;1838511;77;21472;-69
2022/02/25 04:08:37;;;;;;;37.75;24.00;;;;;;;-2.85;100.00;99570.67;1821319;76;21000;-70
2022/02/25 04:11:03;;;;;;;33.75;19.30;;;;;;;-2.79;100.00;99566.58;1829632;76;21020;-69
2022/02/25 04:13:30;;;;;;;28.30;18.52;;;;;;;-2.82;100.00;99559.86;1835640;77;21019;-71
2022/02/25 04:15:58;;;;;;;27.65;18.52;;;;;;;-2.83;100.00;99560.83;1829448;77;21599;-69
2022/02/25 04:18:24;;;;;;;30.00;17.62;;;;;;;-2.86;100.00;99558.54;1839985;78;21233;-71
2022/02/25 04:20:51;;;;;;;26.23;17.37;;;;;;;-2.84;100.00;99557.88;1841429;76;21528;-71
2022/02/25 04:23:18;;;;;;;29.98;18.67;;;;;;;-2.85;100.00;99557.54;1839910;76;21418;-69
2022/02/25 04:25:45;;;;;;;29.30;19.57;;;;;;;-2.87;100.00;99553.44;1839881;78;20938;-71
2022/02/25 04:28:12;;;;;;;29.00;20.50;;;;;;;-2.88;100.00;99563.14;1838093;77;20955;-69
2022/02/25 04:30:39;;;;;;;32.75;21.70;;;;;;;-2.83;100.00;99559.52;1820435;78;21073;-71
2022/02/25 04:33:05;;;;;;;28.45;18.80;;;;;;;-2.89;100.00;99561.97;1820205;77;21539;-70
2022/02/25 04:35:32;;;;;;;31.90;20.12;;;;;;;-2.96;100.00;99563.62;1813639;77;21465;-70
2022/02/25 04:37:59;;;;;;;29.65;19.52;;;;;;;-2.89;100.00;99564.60;1799470;78;20986;-72
2022/02/25 04:40:26;;;;;;;37.03;23.65;;;;;;;-2.90;100.00;99567.73;1820551;76;20879;-70
2022/02/25 04:42:53;;;;;;;31.23;20.68;;;;;;;-2.92;100.00;99572.33;1820575;78;21856;-70
2022/02/25 04:45:22;;;;;;;36.55;24.30;;;;;;;-2.95;100.00;99574.48;1820341;78;21559;-72
2022/02/25 04:47:51;;;;;;;36.42;24.32;;;;;;;-2.93;100.00;99569.38;1820865;78;21622;-70
2022/02/25 04:50:18;;;;;;;34.48;21.97;;;;;;;-2.90;100.00;99567.73;1823951;76;21520;-71
2022/02/25 04:52:45;;;;;;;29.50;21.60;;;;;;;-2.80;100.00;99568.86;1830714;76;21549;-69
2022/02/25 04:55:11;;;;;;;28.32;19.87;;;;;;;-2.71;100.00;99568.37;1813936;77;21140;-69
2022/02/25 04:57:40;;;;;;;31.52;19.95;;;;;;;-2.67;100.00;99570.97;1838082;77;20907;-69
2022/02/25 05:00:13;;;;;;;30.72;19.50;;;;;;;-2.71;100.00;99575.75;1825708;76;21430;-71
2022/02/25 05:02:46;;;;;;;28.95;20.60;;;;;;;-2.75;100.00;99569.68;1836468;76;21465;-70
2022/02/25 05:05:13;;;;;;;25.62;17.20;;;;;;;-2.75;100.00;99572.31;1836142;78;20965;-72
2022/02/25 05:07:42;;;;;;;32.05;18.37;;;;;;;-2.69;100.00;99569.03;1834864;77;21197;-70
2022/02/25 05:10:10;;;;;;;25.80;19.20;;;;;;;-2.64;100.00;99565.41;1837582;76;20907;-69
2022/02/25 05:12:37;;;;;;;29.55;20.50;;;;;;;-2.60;100.00;99564.90;1813788;77;21484;-71
2022/02/25 05:20:43;;;;;;;40.23;24.30;;;;;;;-2.54;100.00;99562.58;1805951;77;21648;-68
2022/02/25 05:23:10;;;;;;;40.52;22.55;;;;;;;-2.44;100.00;99570.59;1797960;78;26362;-70
2022/02/25 05:25:37;;;;;;;40.23;23.35;;;;;;;-2.24;100.00;99580.71;1790692;78;21553;-69
2022/02/25 05:28:04;;;;;;;35.50;21.73;;;;;;;-2.08;100.00;99575.39;1807388;78;21610;-72
2022/02/25 05:30:31;;;;;;;39.33;20.75;;;;;;;-1.93;100.00;99571.55;1814834;76;21017;-70
2022/02/25 05:32:57;;;;;;;34.13;20.37;;;;;;;-1.77;100.00;99571.44;1815781;78;21159;-70
2022/02/25 05:35:24;;;;;;;37.95;21.23;;;;;;;-1.64;100.00;99574.84;1816202;78;21499;-70
2022/02/25 05:37:51;;;;;;;32.65;22.73;;;;;;;-1.52;100.00;99571.28;1800852;78;20864;-70
2022/02/25 05:40:19;;;;;;;30.75;20.12;;;;;;;-1.42;100.00;99577.16;1825856;77;20954;-69
2022/02/25 05:42:49;;;;;;;30.57;19.65;;;;;;;-1.27;100.00;99577.21;1823605;77;22109;-67
2022/02/25 05:45:17;;;;;;;26.37;18.63;;;;;;;-1.09;100.00;99579.02;1822965;76;21170;-69
2022/02/25 05:47:48;;;;;;;28.77;17.77;;;;;;;-0.92;100.00;99584.97;1814479;76;21782;-68
2022/02/25 05:50:20;;;;;;;22.87;17.05;;;;;;;-0.77;100.00;99582.37;1812416;79;20997;-68
2022/02/25 05:52:47;;;;;;;29.77;17.57;;;;;;;-0.65;100.00;99580.92;1814416;78;21005;-68
2022/02/25 05:55:16;;;;;;;26.68;17.77;;;;;;;-0.50;100.00;99574.85;1831076;78;21539;-69
2022/02/25 05:57:44;;;;;;;22.73;15.80;;;;;;;-0.37;100.00;99577.66;1817872;76;21839;-69
2022/02/25 06:00:13;;;;;;;21.10;14.55;;;;;;;-0.23;100.00;99570.75;1824594;77;21012;-68
2022/02/25 06:02:44;;;;;;;22.73;15.10;;;;;;;-0.09;100.00;99568.60;1811000;79;20970;-68
2022/02/25 06:05:11;;;;;;;22.62;15.48;;;;;;;0.10;100.00;99573.81;1805318;77;21101;-67
2022/02/25 06:07:44;;;;;;;37.73;22.50;;;;;;;0.31;100.00;99584.09;1807991;79;20936;-69
2022/02/25 06:10:11;;;;;;;30.85;18.92;;;;;;;0.45;100.00;99576.63;1812680;77;21145;-69
2022/02/25 06:12:39;;;;;;;45.80;31.33;;;;;;;0.57;100.00;99579.09;1812991;78;21018;-69
2022/02/25 06:15:09;;;;;;;32.85;21.12;;;;;;;0.67;100.00;99577.97;1812785;77;21539;-68
2022/02/25 06:17:44;;;;;;;36.95;26.00;;;;;;;0.76;100.00;99567.56;1802362;77;20893;-68
2022/02/25 06:20:12;;;;;;;27.05;18.42;;;;;;;0.88;100.00;99575.29;1800905;77;21070;-68
2022/02/25 06:22:42;;;;;;;31.95;21.80;;;;;;;1.00;100.00;99573.77;1806678;77;20932;-69
2022/02/25 06:25:12;;;;;;;52.90;34.18;;;;;;;1.01;100.00;99565.36;1811062;77;20997;-68
2022/02/25 06:27:39;;;;;;;52.67;37.10;;;;;;;1.15;100.00;99564.45;1807519;77;20924;-69
2022/02/25 06:30:10;;;;;;;44.33;32.08;;;;;;;1.33;100.00;99566.61;1829096;77;20983;-71
2022/02/25 06:32:38;;;;;;;26.40;19.05;;;;;;;1.45;100.00;99567.70;1814926;77;21085;-69
2022/02/25 06:35:06;;;;;;;59.90;37.20;;;;;;;1.64;100.00;99570.16;1822630;77;21133;-69
2022/02/25 06:37:33;;;;;;;27.37;17.87;;;;;;;1.77;100.00;99571.25;1817530;77;21544;-70
2022/02/25 06:40:13;;;;;;;23.83;15.63;;;;;;;1.89;100.00;99569.67;1813747;78;21024;-71
2022/02/25 06:46:14;;;;;;;28.65;19.10;;;;;;;2.32;100.00;99563.59;1618942;87;21024;-68
2022/02/25 06:48:42;;;;;;;35.77;27.87;;;;;;;2.73;100.00;99556.04;1646506;87;21157;-68
2022/02/25 06:51:09;;;;;;;23.67;15.55;;;;;;;2.91;100.00;99565.23;1640302;87;21623;-67
2022/02/25 06:53:36;;;;;;;27.42;19.67;;;;;;;3.00;100.00;99566.66;1628285;87;21130;-68
2022/02/25 06:56:06;;;;;;;12.90;10.15;;;;;;;2.82;100.00;99561.97;1644052;87;21102;-68
2022/02/25 06:58:34;;;;;;;15.18;11.33;;;;;;;2.98;100.00;99574.00;1645213;87;21594;-68
2022/02/25 07:01:02;;;;;;;15.18;11.22;;;;;;;3.15;100.00;99571.24;1648455;87;21136;-67
2022/02/25 07:03:32;;;;;;;28.87;18.57;;;;;;;3.15;100.00;99568.59;1643979;87;21842;-68
2022/02/25 07:05:59;;;;;;;16.73;10.88;;;;;;;3.17;100.00;99560.44;1630237;85;21538;-66
2022/02/25 07:08:28;;;;;;;17.00;11.70;;;;;;;3.25;100.00;99560.73;1639721;85;21671;-70
2022/02/25 07:10:56;;;;;;;16.00;11.70;;;;;;;3.51;100.00;99567.85;1638784;87;21557;-69
2022/02/25 07:13:24;;;;;;;40.17;34.50;;;;;;;3.80;100.00;99563.91;1651679;85;21129;-72
2022/02/25 07:15:58;;;;;;;17.75;13.15;;;;;;;4.17;100.00;99563.65;1628190;86;21074;-69
2022/02/25 07:18:27;;;;;;;29.45;20.25;;;;;;;4.56;100.00;99563.14;1628053;86;21125;-70
2022/02/25 07:20:56;;;;;;;9.88;6.95;;;;;;;4.60;100.00;99562.18;1617396;86;21089;-69
2022/02/25 07:23:27;;;;;;;10.20;7.85;;;;;;;4.25;100.00;99566.57;1738439;79;21117;-69
2022/02/25 07:25:55;;;;;;;30.10;17.35;;;;;;;4.22;100.00;99550.55;1776318;79;21584;-69
2022/02/25 07:28:25;;;;;;;53.10;35.28;;;;;;;3.86;100.00;99547.12;1779961;79;20994;-69
2022/02/25 07:30:54;;;;;;;14.65;10.80;;;;;;;3.94;100.00;99556.69;1780258;78;20995;-69
2022/02/25 07:33:29;;;;;;;20.10;14.33;;;;;;;4.25;100.00;99557.27;1771511;78;21086;-69
2022/02/25 07:36:07;;;;;;;9.77;7.60;;;;;;;4.33;100.00;99561.00;1712250;83;21103;-69
2022/02/25 07:38:40;;;;;;;11.30;7.47;;;;;;;4.28;100.00;99554.19;1690184;82;21163;-67
2022/02/25 07:41:07;;;;;;;20.85;15.83;;;;;;;4.06;100.00;99551.02;1694264;82;21050;-67
2022/02/25 07:43:36;;;;;;;20.27;14.68;;;;;;;4.40;100.00;99554.33;1682722;84;21550;-70
2022/02/25 07:46:07;;;;;;;15.60;11.03;;;;;;;4.36;100.00;99548.64;1775459;79;21699;-72
2022/02/25 07:48:38;;;;;;;39.40;26.12;;;;;;;4.21;100.00;99544.91;1761778;78;21038;-69
2022/02/25 07:51:06;;;;;;;23.85;15.78;;;;;;;4.34;100.00;99537.41;1804052;78;21342;-68
2022/02/25 07:53:34;;;;;;;12.85;9.20;;;;;;;4.36;100.00;99546.47;1792675;78;20998;-69
2022/02/25 07:56:04;;;;;;;22.87;13.03;;;;;;;4.64;100.00;99538.13;1771564;80;21011;-70
2022/02/25 07:58:32;;;;;;;15.13;10.50;;;;;;;4.90;100.00;99543.26;1712716;83;21008;-67
2022/02/25 08:01:00;;;;;;;18.65;14.15;;;;;;;5.00;100.00;99543.27;1714081;83;21085;-66
2022/02/25 08:03:27;;;;;;;40.15;31.40;;;;;;;5.38;100.00;99537.81;1701428;83;25252;-69
2022/02/25 08:05:54;;;;;;;12.93;9.45;;;;;;;5.03;100.00;99537.02;1787256;80;20935;-68
2022/02/25 08:08:21;;;;;;;21.85;15.80;;;;;;;4.99;100.00;99533.67;1785423;80;21065;-68
2022/02/25 08:10:47;;;;;;;14.95;7.92;;;;;;;5.18;100.00;99538.53;1785474;79;20883;-68
2022/02/25 08:13:14;;;;;;;11.93;8.63;;;;;;;5.61;100.00;99533.68;1805665;78;21104;-68
2022/02/25 08:15:42;;;;;;;16.67;11.95;;;;;;;5.56;100.00;99526.36;1831755;77;21107;-67
2022/02/25 08:18:09;;;;;;;10.60;7.95;;;;;;;5.51;100.00;99524.88;1832986;77;20910;-69
2022/02/25 08:20:40;;;;;;;30.77;22.10;;;;;;;5.51;100.00;99524.88;1828198;77;20961;-68
2022/02/25 08:23:09;;;;;;;20.88;11.12;;;;;;;5.58;100.00;99517.63;1833596;78;20971;-69
2022/02/25 08:25:36;;;;;;;;;;;;;;;5.61;98.28;99510.55;1819655;77;21120;-69
2022/02/25 08:28:08;;;;;;;14.28;10.40;;;;;;;5.87;99.82;99517.92;1792465;79;21751;-70
2022/02/25 08:30:37;;;;;;;25.88;17.75;;;;;;;6.20;95.97;99513.55;1781557;78;21022;-71
2022/02/25 08:33:04;;;;;;;36.17;24.10;;;;;;;6.30;93.27;99503.67;1828047;78;21054;-69
2022/02/25 08:35:33;;;;;;;11.30;7.33;;;;;;;6.27;92.25;99514.27;1839436;77;21564;-70
2022/02/25 08:38:01;;;;;;;;;;;;;;;6.27;91.22;99509.44;1809922;77;21579;-68
2022/02/25 08:40:32;;;;;;;7.05;5.47;;;;;;;6.27;89.77;99505.44;1803977;78;20144;-70
2022/02/25 08:43:01;;;;;;;36.30;17.87;;;;;;;5.97;87.14;99495.06;1760218;80;21007;-67
2022/02/25 08:45:28;;;;;;;;;;;;;;;6.01;86.63;99494.11;1744747;82;20876;-69
2022/02/25 08:47:55;;;;;;;34.23;22.47;;;;;;;6.01;86.56;99479.45;1742200;80;20668;-69
2022/02/25 08:50:22;;;;;;;11.15;6.85;;;;;;;6.42;89.16;99481.86;1722979;82;21508;-69
2022/02/25 08:52:52;;;;;;;11.10;7.10;;;;;;;6.54;81.95;99473.36;1741333;81;21132;-68
2022/02/25 08:55:20;;;;;;;18.35;9.98;;;;;;;6.54;80.64;99481.86;1738241;80;20959;-68
2022/02/25 08:57:48;;;;;;;12.50;8.50;;;;;;;6.40;82.08;99468.75;1729935;82;20923;-70
2022/02/25 09:00:23;;;;;;;14.40;7.70;;;;;;;6.44;81.25;99467.26;1716592;83;21051;-68
2022/02/25 09:02:51;;;;;;;12.78;9.53;;;;;;;6.34;81.01;99466.17;1730973;80;21121;-68
2022/02/25 09:05:18;;;;;;;25.48;17.73;;;;;;;6.70;79.55;99463.06;1751791;79;21131;-69
2022/02/25 09:07:47;;;;;;;19.10;13.60;;;;;;;6.83;78.81;99452.96;1747588;81;21442;-70
2022/02/25 09:10:15;;;;;;;39.53;25.30;;;;;;;7.03;77.67;99457.14;1755151;81;20991;-68
2022/02/25 09:12:42;;;;;;;;;;;;;;;7.08;77.20;99447.94;1764224;80;21339;-70
2022/02/25 09:15:12;;;;;;;17.77;10.68;;;;;;;7.22;75.89;99451.96;1762714;79;20131;-68
2022/02/25 09:17:39;;;;;;;11.20;8.20;;;;;;;7.08;76.34;99463.95;1741914;80;21127;-69
2022/02/25 09:20:07;;;;;;;12.45;8.90;;;;;;;7.24;74.40;99462.42;1763787;80;21070;-68
2022/02/25 09:22:35;;;;;;;10.53;8.28;;;;;;;7.59;72.12;99454.33;1760634;80;20971;-68
2022/02/25 09:25:04;;;;;;;10.20;6.15;;;;;;;7.77;71.83;99442.68;1755129;80;20959;-72
2022/02/25 09:27:32;;;;;;;27.00;16.30;;;;;;;7.80;69.43;99445.40;1755622;80;20947;-71
2022/02/25 09:30:02;;;;;;;;;;;;;;;7.56;71.40;99452.67;1765903;79;21145;-70
2022/02/25 09:32:31;;;;;;;10.50;6.95;;;;;;;7.35;69.94;99439.41;1754066;80;20087;-71
2022/02/25 09:34:57;;;;;;;12.98;8.13;;;;;;;6.97;71.89;99443.41;1721211;83;20990;-66
2022/02/25 09:37:25;;;;;;;8.58;5.33;;;;;;;7.01;73.48;99444.58;1748019;81;21561;-75
2022/02/25 09:39:53;;;;;;;12.28;6.50;;;;;;;6.74;70.52;99436.23;1747877;82;21072;-71
2022/02/25 09:42:21;;;;;;;11.97;8.53;;;;;;;6.62;73.85;99425.55;1748588;81;21532;-70
2022/02/25 09:44:48;;;;;;;11.22;7.42;;;;;;;6.72;74.87;99438.30;1755224;81;20883;-70
2022/02/25 09:47:16;;;;;;;9.10;6.80;;;;;;;7.04;76.20;99438.77;1749002;82;21043;-70
2022/02/25 09:49:44;;;;;;;23.18;12.20;;;;;;;6.67;74.25;99422.99;1762953;81;21024;-70
2022/02/25 09:52:13;;;;;;;28.35;15.72;;;;;;;6.46;75.38;99430.21;1765628;79;21030;-68
2022/02/25 09:54:41;;;;;;;10.17;6.10;;;;;;;6.51;77.02;99424.47;1769364;79;21698;-69
2022/02/25 09:57:08;;;;;;;42.33;23.93;;;;;;;6.68;71.55;99413.13;1746494;80;20995;-68
2022/02/25 09:59:41;;;;;;;9.98;6.50;;;;;;;6.57;74.08;99426.76;1756729;80;21110;-69
2022/02/25 10:02:11;;;;;;;23.07;13.10;;;;;;;6.35;72.34;99400.64;1768402;79;21026;-69
2022/02/25 10:04:39;;;;;;;18.70;11.55;;;;;;;6.31;73.70;99401.33;1778643;79;20994;-72
2022/02/25 10:07:26;;;;;;;15.10;7.80;;;;;;;6.60;70.87;99409.76;1780033;77;21156;-70
2022/02/25 10:09:53;;;;;;;7.87;6.03;;;;;;;6.77;71.68;99391.21;1778525;78;21791;-72
2022/02/25 10:12:22;;;;;;;15.10;11.80;;;;;;;7.10;70.68;99401.78;1778140;78;21014;-72
2022/02/25 10:14:50;;;;;;;8.45;6.40;;;;;;;7.47;70.27;99402.80;1746993;79;21058;-70
2022/02/25 10:17:20;;;;;;;12.55;7.20;;;;;;;7.78;66.17;99399.40;1763586;81;21001;-69
2022/02/25 10:20:03;;;;;;;8.95;5.50;;;;;;;7.91;66.57;99399.93;1763447;81;21799;-69
2022/02/25 10:22:38;;;;;;;9.80;6.00;;;;;;;7.67;65.27;99387.72;1751218;81;21088;-68
2022/02/25 10:25:08;;;;;;;7.25;5.95;;;;;;;7.78;64.74;99401.54;1758014;81;21585;-67
2022/02/25 10:27:44;;;;;;;10.75;6.60;;;;;;;7.82;63.19;99409.38;1723802;82;21070;-68
2022/02/25 10:30:17;;;;;;;10.93;6.40;;;;;;;7.98;62.51;99394.94;1726612;81;21095;-67
2022/02/25 10:32:53;;;;;;;9.83;7.08;;;;;;;8.27;62.74;99387.69;1735858;82;21151;-67
2022/02/25 10:35:37;;;;;;;6.83;5.05;;;;;;;8.14;61.27;99390.16;1741238;81;20873;-68
2022/02/25 10:38:11;;;;;;;8.10;6.47;;;;;;;7.73;64.52;99380.08;1746826;80;21571;-68
2022/02/25 10:40:47;;;;;;;8.55;6.60;;;;;;;8.54;61.26;99388.68;1734316;81;21073;-69
2022/02/25 10:43:25;;;;;;;12.45;7.08;;;;;;;8.75;61.71;99368.41;1762231;81;21020;-69
2022/02/25 10:46:06;;;;;;;7.45;4.90;;;;;;;8.79;59.48;99385.59;1748011;81;21641;-69
2022/02/25 10:48:33;;;;;;;13.95;7.70;;;;;;;8.49;58.78;99374.42;1739333;81;21462;-70
2022/02/25 10:51:09;;;;;;;11.57;7.92;;;;;;;8.37;63.19;99378.48;1744174;81;22327;-69
2022/02/25 10:53:50;;;;;;;14.40;8.60;;;;;;;8.85;60.91;99369.61;1713093;83;21790;-70
2022/02/25 10:56:21;;;;;;;12.68;7.12;;;;;;;8.61;61.02;99376.48;1791538;79;21026;-69
2022/02/25 10:58:53;;;;;;;15.38;9.55;;;;;;;8.02;62.74;99374.18;1806754;78;21135;-69
2022/02/25 11:01:44;;;;;;;9.55;6.95;;;;;;;7.98;63.52;99365.55;1807006;78;21017;-67
2022/02/25 11:04:13;;;;;;;9.05;6.47;;;;;;;8.06;64.02;99359.29;1708155;82;21438;-67
2022/02/25 11:07:01;;;;;;;10.25;7.45;;;;;;;7.92;63.83;99352.63;1731755;80;20937;-66
2022/02/25 11:30:05;;;;;;;8.30;6.12;;;;;;;7.67;67.28;99351.66;1749590;80;21449;-68
2022/02/25 11:33:18;;;;;;;10.28;6.92;;;;;;;7.20;69.32;99331.28;1725602;82;21385;-67
2022/02/25 11:40:05;;;;;;;8.58;6.75;;;;;;;7.14;68.69;99310.06;1746626;80;20946;-68
2022/02/25 11:43:12;;;;;;;9.08;5.60;;;;;;;7.67;67.03;99303.05;1700461;83;20927;-69
2022/02/25 11:46:06;;;;;;;11.40;6.47;;;;;;;7.84;61.83;99307.08;1589568;89;21676;-68
2022/02/25 11:56:17;;;;;;;10.70;6.92;;;;;;;8.04;62.52;99291.09;1487775;94;21130;-68
2022/02/25 11:58:51;;;;;;;11.28;7.00;;;;;;;8.10;61.27;99286.89;1482779;96;21091;-66
2022/02/25 12:01:20;;;;;;;61.10;32.30;;;;;;;8.11;62.30;99281.05;1455859;97;21136;-67
2022/02/25 12:04:06;;;;;;;89.97;40.38;;;;;;;8.23;62.18;99287.11;1462886;95;21143;-68
2022/02/25 12:07:00;;;;;;;44.18;23.02;;;;;;;7.99;63.58;99281.12;1493377;93;21067;-67
2022/02/25 12:09:42;;;;;;;365.27;201.60;;;;;;;7.65;65.92;99284.30;1475337;96;21543;-68
2022/02/25 12:12:26;;;;;;;12.18;8.05;;;;;;;7.24;68.20;99277.69;1473837;96;21049;-66
2022/02/25 12:15:26;;;;;;;16.62;8.43;;;;;;;7.14;67.64;99278.83;1474405;96;21083;-68